createdAt,value
2023-05-17T00:00:13.978Z,10.30
2023-05-17T00:01:13.020Z,10.30
2023-05-17T00:02:13.080Z,10.70
2023-05-17T00:03:13.025Z,10.60
2023-05-17T00:04:12.920Z,10.60
2023-05-17T00:05:12.901Z,10.30
2023-05-17T00:06:13.159Z,10.50
2023-05-17T00:07:13.144Z,10.60
2023-05-17T00:08:12.971Z,10.10
2023-05-17T00:09:12.869Z,10.50
2023-05-17T00:10:13.721Z,10.20
2023-05-17T00:11:13.604Z,10.20
2023-05-17T00:12:13.525Z,10.70
2023-05-17T00:13:13.397Z,10.20
2023-05-17T00:14:13.410Z,10.40
2023-05-17T00:15:13.373Z,10.10
2023-05-17T00:16:13.356Z,10.30
2023-05-17T00:17:13.234Z,10.40
2023-05-17T00:18:13.039Z,10.20
2023-05-17T00:19:13.088Z,10.40
2023-05-17T00:20:13.818Z,10.50
2023-05-17T00:21:13.892Z,10.40
2023-05-17T00:22:12.784Z,10.30
2023-05-17T00:23:13.694Z,10.50
2023-05-17T00:24:13.781Z,10.60
2023-05-17T00:25:13.631Z,10.40
2023-05-17T00:26:13.537Z,10.40
2023-05-17T00:27:13.321Z,10.20
2023-05-17T00:28:13.439Z,10.20
2023-05-17T00:29:13.638Z,10.30
2023-05-17T00:30:13.751Z,10.30
2023-05-17T00:31:13.919Z,10.40
2023-05-17T00:32:13.405Z,10.10
2023-05-17T00:33:13.819Z,10.20
2023-05-17T00:34:13.554Z,10.40
2023-05-17T00:35:13.572Z,10.00
2023-05-17T00:36:13.610Z,10.30
2023-05-17T00:37:13.825Z,10.10
2023-05-17T00:38:13.565Z,10.10
2023-05-17T00:39:13.739Z,10.10
2023-05-17T00:40:13.560Z,9.90
2023-05-17T00:41:13.375Z,10.00
2023-05-17T00:42:13.263Z,10.00
2023-05-17T00:43:13.325Z,10.00
2023-05-17T00:44:13.142Z,10.20
2023-05-17T00:45:13.221Z,10.30
2023-05-17T00:46:13.084Z,10.10
2023-05-17T00:47:12.962Z,10.00
2023-05-17T00:48:12.802Z,9.90
2023-05-17T00:49:14.007Z,9.90
2023-05-17T00:50:12.773Z,10.00
2023-05-17T00:51:13.677Z,10.10
2023-05-17T00:52:13.907Z,10.10
2023-05-17T00:53:12.838Z,9.90
2023-05-17T00:54:13.895Z,9.90
2023-05-17T00:55:12.701Z,9.80
2023-05-17T00:56:13.516Z,9.70
2023-05-17T00:57:13.696Z,10.00
2023-05-17T00:58:13.649Z,10.10
2023-05-17T00:59:13.635Z,9.90
2023-05-17T01:00:13.511Z,10.10
2023-05-17T01:01:13.438Z,10.10
2023-05-17T01:02:13.241Z,10.00
2023-05-17T01:03:45.540Z,10.00
2023-05-17T01:04:12.976Z,9.70
2023-05-17T01:05:12.940Z,9.60
2023-05-17T01:06:12.760Z,9.90
2023-05-17T01:07:13.622Z,9.90
2023-05-17T01:08:13.407Z,10.30
2023-05-17T01:09:13.343Z,10.10
2023-05-17T01:10:13.213Z,10.20
2023-05-17T01:11:13.055Z,10.10
2023-05-17T01:12:13.122Z,9.70
2023-05-17T01:13:12.953Z,9.90
2023-05-17T01:14:12.782Z,10.20
2023-05-17T01:15:13.604Z,9.90
2023-05-17T01:16:13.444Z,9.90
2023-05-17T01:17:13.403Z,9.90
2023-05-17T01:18:13.636Z,9.90
2023-05-17T01:19:13.735Z,9.80
2023-05-17T01:20:13.931Z,9.90
2023-05-17T01:21:12.866Z,10.00
2023-05-17T01:22:12.736Z,9.70
2023-05-17T01:23:13.661Z,9.70
2023-05-17T01:24:13.792Z,9.70
2023-05-17T01:25:13.940Z,9.70
2023-05-17T01:26:17.828Z,9.90
2023-05-17T01:27:13.602Z,9.80
2023-05-17T01:28:13.379Z,9.70
2023-05-17T01:29:13.227Z,9.90
2023-05-17T01:30:13.067Z,10.00
2023-05-17T01:31:13.040Z,9.90
2023-05-17T01:32:13.027Z,9.60
2023-05-17T01:33:13.179Z,9.80
2023-05-17T01:34:13.040Z,9.70
2023-05-17T01:35:12.869Z,9.80
2023-05-17T01:36:13.835Z,9.90
2023-05-17T01:37:13.826Z,9.90
2023-05-17T01:38:13.857Z,9.70
2023-05-17T01:39:13.780Z,9.60
2023-05-17T01:40:13.684Z,9.40
2023-05-17T01:41:13.532Z,9.50
2023-05-17T01:42:13.382Z,9.60
2023-05-17T01:43:13.595Z,9.60
2023-05-17T01:44:13.466Z,9.40
2023-05-17T01:45:13.253Z,9.50
2023-05-17T01:46:13.237Z,9.30
2023-05-17T01:47:13.247Z,9.50
2023-05-17T01:48:13.461Z,9.20
2023-05-17T01:49:13.718Z,9.20
2023-05-17T01:50:13.655Z,9.40
2023-05-17T01:51:13.550Z,9.40
2023-05-17T01:52:13.524Z,9.40
2023-05-17T01:53:13.295Z,9.30
2023-05-17T01:54:13.189Z,9.40
2023-05-17T01:55:13.141Z,9.40
2023-05-17T01:56:13.218Z,9.40
2023-05-17T01:57:13.180Z,9.30
2023-05-17T01:58:13.085Z,9.30
2023-05-17T01:59:12.941Z,9.40
2023-05-17T02:00:12.713Z,9.50
2023-05-17T02:01:13.482Z,9.40
2023-05-17T02:02:13.660Z,9.40
2023-05-17T02:03:14.297Z,9.30
2023-05-17T02:04:13.340Z,9.10
2023-05-17T02:05:13.426Z,9.20
2023-05-17T02:06:13.399Z,9.30
2023-05-17T02:07:13.301Z,9.30
2023-05-17T02:08:13.060Z,9.20
2023-05-17T02:09:12.877Z,9.20
2023-05-17T02:10:13.685Z,9.20
2023-05-17T02:11:13.601Z,9.30
2023-05-17T02:12:13.574Z,9.40
2023-05-17T02:13:13.522Z,9.50
2023-05-17T02:14:13.388Z,9.40
2023-05-17T02:15:13.347Z,9.30
2023-05-17T02:16:13.316Z,9.20
2023-05-17T02:17:13.275Z,9.30
2023-05-17T02:18:13.269Z,9.20
2023-05-17T02:19:13.322Z,9.20
2023-05-17T02:20:13.396Z,9.20
2023-05-17T02:21:13.627Z,9.00
2023-05-17T02:22:13.534Z,9.10
2023-05-17T02:23:13.456Z,9.20
2023-05-17T02:24:13.609Z,9.10
2023-05-17T02:25:13.521Z,9.20
2023-05-17T02:26:13.328Z,9.10
2023-05-17T02:27:13.177Z,9.20
2023-05-17T02:28:13.090Z,9.30
2023-05-17T02:29:13.222Z,9.30
2023-05-17T02:30:15.643Z,9.20
2023-05-17T02:31:13.054Z,9.30
2023-05-17T02:32:13.178Z,9.30
2023-05-17T02:33:19.443Z,9.10
2023-05-17T02:34:13.345Z,9.20
2023-05-17T02:35:13.447Z,9.20
2023-05-17T02:36:13.276Z,9.00
2023-05-17T02:37:13.053Z,9.20
2023-05-17T02:38:14.116Z,9.10
2023-05-17T02:39:13.006Z,9.20
2023-05-17T02:40:12.835Z,9.30
2023-05-17T02:41:13.665Z,9.20
2023-05-17T02:42:13.419Z,9.60
2023-05-17T02:43:13.605Z,9.50
2023-05-17T02:44:13.754Z,9.50
2023-05-17T02:45:13.826Z,9.80
2023-05-17T02:46:13.697Z,9.90
2023-05-17T02:47:13.719Z,10.10
2023-05-17T02:48:13.742Z,10.00
2023-05-17T02:49:13.640Z,9.80
2023-05-17T02:50:13.645Z,9.50
2023-05-17T02:51:13.645Z,9.30
2023-05-17T02:52:13.509Z,9.00
2023-05-17T02:53:13.500Z,9.00
2023-05-17T02:54:13.393Z,9.00
2023-05-17T02:55:13.182Z,8.90
2023-05-17T02:56:13.255Z,8.90
2023-05-17T02:57:13.306Z,9.00
2023-05-17T02:58:13.317Z,9.10
2023-05-17T02:59:13.211Z,9.00
2023-05-17T03:00:13.295Z,8.70
2023-05-17T03:01:13.588Z,8.70
2023-05-17T03:02:13.473Z,8.70
2023-05-17T03:03:13.469Z,8.90
2023-05-17T03:04:13.457Z,8.80
2023-05-17T03:05:13.372Z,8.90
2023-05-17T03:06:13.456Z,8.80
2023-05-17T03:07:13.413Z,9.00
2023-05-17T03:08:13.222Z,8.90
2023-05-17T03:09:13.091Z,9.00
2023-05-17T03:10:12.882Z,9.00
2023-05-17T03:11:12.880Z,8.90
2023-05-17T03:12:13.017Z,9.10
2023-05-17T03:13:13.671Z,8.80
2023-05-17T03:14:13.519Z,9.00
2023-05-17T03:15:13.411Z,8.90
2023-05-17T03:16:13.336Z,8.90
2023-05-17T03:17:13.328Z,8.80
2023-05-17T03:18:13.776Z,9.00
2023-05-17T03:19:12.991Z,8.90
2023-05-17T03:20:12.941Z,9.00
2023-05-17T03:21:13.011Z,9.20
2023-05-17T03:22:13.255Z,9.30
2023-05-17T03:23:13.155Z,9.00
2023-05-17T03:24:12.990Z,9.30
2023-05-17T03:25:12.868Z,9.30
2023-05-17T03:26:13.748Z,9.40
2023-05-17T03:27:13.636Z,9.10
2023-05-17T03:28:13.821Z,9.20
2023-05-17T03:29:13.917Z,9.30
2023-05-17T03:30:12.897Z,9.20
2023-05-17T03:31:12.826Z,9.30
2023-05-17T03:32:13.775Z,9.30
2023-05-17T03:33:13.888Z,9.10
2023-05-17T03:34:12.746Z,9.10
2023-05-17T03:35:13.576Z,9.20
2023-05-17T03:36:13.349Z,9.20
2023-05-17T03:37:13.196Z,9.20
2023-05-17T03:38:13.054Z,9.10
2023-05-17T03:39:12.945Z,9.20
2023-05-17T03:40:13.586Z,9.20
2023-05-17T03:41:13.453Z,9.10
2023-05-17T03:42:13.344Z,9.30
2023-05-17T03:43:13.221Z,9.30
2023-05-17T03:44:13.030Z,9.40
2023-05-17T03:45:13.662Z,9.50
2023-05-17T03:46:13.746Z,9.50
2023-05-17T03:47:13.539Z,9.30
2023-05-17T03:48:13.264Z,9.30
2023-05-17T03:49:13.192Z,9.50
2023-05-17T03:50:13.154Z,9.60
2023-05-17T03:51:13.021Z,9.60
2023-05-17T03:52:12.905Z,9.70
2023-05-17T03:53:12.992Z,9.50
2023-05-17T03:54:12.821Z,9.70
2023-05-17T03:55:13.893Z,9.70
2023-05-17T03:56:12.845Z,9.80
2023-05-17T03:57:12.695Z,9.60
2023-05-17T03:58:13.479Z,9.50
2023-05-17T03:59:13.358Z,9.50
2023-05-17T04:00:13.231Z,9.70
2023-05-17T04:01:13.361Z,9.50
2023-05-17T04:02:13.378Z,9.70
2023-05-17T04:03:13.471Z,10.10
2023-05-17T04:04:13.592Z,10.20
2023-05-17T04:05:13.558Z,10.00
2023-05-17T04:06:13.518Z,9.70
2023-05-17T04:07:13.539Z,9.80
2023-05-17T04:08:13.383Z,9.70
2023-05-17T04:09:13.223Z,9.90
2023-05-17T04:10:13.144Z,9.90
2023-05-17T04:11:13.215Z,10.00
2023-05-17T04:12:13.172Z,9.90
2023-05-17T04:13:13.063Z,9.80
2023-05-17T04:14:13.010Z,10.00
2023-05-17T04:15:13.006Z,9.90
2023-05-17T04:16:12.787Z,10.00
2023-05-17T04:17:16.253Z,10.20
2023-05-17T04:18:13.857Z,10.20
2023-05-17T04:19:13.762Z,10.00
2023-05-17T04:20:13.755Z,9.90
2023-05-17T04:21:13.694Z,10.00
2023-05-17T04:22:13.855Z,10.10
2023-05-17T04:23:14.001Z,10.30
2023-05-17T04:24:12.951Z,10.50
2023-05-17T04:25:13.145Z,10.40
2023-05-17T04:26:13.293Z,10.00
2023-05-17T04:27:13.329Z,10.30
2023-05-17T04:28:13.581Z,10.40
2023-05-17T04:29:13.457Z,9.80
2023-05-17T04:30:13.365Z,10.30
2023-05-17T04:31:13.214Z,10.10
2023-05-17T04:32:13.034Z,10.20
2023-05-17T04:33:14.351Z,10.30
2023-05-17T04:34:13.549Z,10.40
2023-05-17T04:35:13.519Z,10.30
2023-05-17T04:36:13.350Z,10.00
2023-05-17T04:37:13.265Z,10.30
2023-05-17T04:38:13.116Z,10.20
2023-05-17T04:39:13.285Z,10.40
2023-05-17T04:40:13.267Z,10.50
2023-05-17T04:41:18.945Z,10.00
2023-05-17T04:42:13.086Z,10.50
2023-05-17T04:43:13.297Z,10.20
2023-05-17T04:44:13.640Z,10.10
2023-05-17T04:45:15.362Z,10.60
2023-05-17T04:46:13.500Z,11.00
2023-05-17T04:47:13.390Z,10.90
2023-05-17T04:48:13.300Z,10.80
2023-05-17T04:49:18.345Z,10.60
2023-05-17T04:50:13.462Z,10.30
2023-05-17T04:51:18.568Z,10.50
2023-05-17T04:52:13.398Z,10.60
2023-05-17T04:53:13.356Z,10.80
2023-05-17T04:54:13.456Z,11.30
2023-05-17T04:55:13.321Z,11.40
2023-05-17T04:56:13.314Z,10.50
2023-05-17T04:57:14.605Z,10.60
2023-05-17T04:58:13.430Z,10.70
2023-05-17T04:59:13.556Z,10.90
2023-05-17T05:00:13.523Z,10.90
2023-05-17T05:01:13.530Z,10.60
2023-05-17T05:02:13.348Z,10.30
2023-05-17T05:03:13.304Z,10.20
2023-05-17T05:05:15.071Z,10.40
2023-05-17T05:06:13.310Z,10.40
2023-05-17T05:07:13.240Z,10.40
2023-05-17T05:08:13.276Z,10.20
2023-05-17T05:09:13.180Z,10.30
2023-05-17T05:10:12.995Z,10.90
2023-05-17T05:11:13.171Z,10.40
2023-05-17T05:12:13.075Z,10.90
2023-05-17T05:13:13.131Z,10.70
2023-05-17T05:14:12.990Z,10.40
2023-05-17T05:15:12.813Z,11.00
2023-05-17T05:16:13.829Z,10.60
2023-05-17T05:17:13.671Z,10.30
2023-05-17T05:18:13.650Z,10.80
2023-05-17T05:19:13.793Z,10.50
2023-05-17T05:20:12.692Z,10.80
2023-05-17T05:21:13.675Z,10.80
2023-05-17T05:22:13.660Z,10.90
2023-05-17T05:23:13.679Z,10.80
2023-05-17T05:24:13.573Z,10.80
2023-05-17T05:25:13.374Z,10.40
2023-05-17T05:26:13.214Z,10.60
2023-05-17T05:27:13.396Z,10.90
2023-05-17T05:28:13.188Z,11.10
2023-05-17T05:29:13.324Z,11.30
2023-05-17T05:30:13.260Z,11.70
2023-05-17T05:31:13.208Z,10.80
2023-05-17T05:32:23.066Z,10.90
2023-05-17T05:33:13.178Z,10.90
2023-05-17T05:34:13.545Z,11.10
2023-05-17T05:35:13.413Z,11.20
2023-05-17T05:36:13.472Z,10.80
2023-05-17T05:37:13.439Z,11.00
2023-05-17T05:38:13.468Z,11.40
2023-05-17T05:39:13.359Z,11.50
2023-05-17T05:40:13.225Z,11.20
2023-05-17T05:41:13.027Z,11.00
2023-05-17T05:42:13.146Z,10.70
2023-05-17T05:43:13.125Z,11.00
2023-05-17T05:44:12.952Z,11.50
2023-05-17T05:45:12.769Z,11.40
2023-05-17T05:46:13.563Z,10.90
2023-05-17T05:47:13.399Z,11.10
2023-05-17T05:48:13.293Z,11.20
2023-05-17T05:49:13.211Z,11.30
2023-05-17T05:50:13.201Z,11.70
2023-05-17T05:51:13.099Z,11.00
2023-05-17T05:52:12.931Z,11.40
2023-05-17T05:53:18.633Z,11.20
2023-05-17T05:54:13.634Z,10.90
2023-05-17T05:55:13.489Z,11.40
2023-05-17T05:56:13.342Z,11.40
2023-05-17T05:57:13.243Z,11.50
2023-05-17T05:58:13.342Z,10.80
2023-05-17T05:59:13.464Z,10.70
2023-05-17T06:00:13.508Z,11.30
2023-05-17T06:01:13.298Z,11.30
2023-05-17T06:02:13.134Z,11.40
2023-05-17T06:03:12.992Z,11.40
2023-05-17T06:04:12.952Z,11.50
2023-05-17T06:05:12.885Z,11.40
2023-05-17T06:06:12.878Z,11.40
2023-05-17T06:07:12.996Z,11.50
2023-05-17T06:08:12.931Z,11.60
2023-05-17T06:09:12.711Z,11.30
2023-05-17T06:10:13.632Z,11.20
2023-05-17T06:11:13.552Z,11.60
2023-05-17T06:12:13.517Z,11.70
2023-05-17T06:13:13.379Z,11.10
2023-05-17T06:14:13.319Z,11.40
2023-05-17T06:15:13.491Z,11.60
2023-05-17T06:16:13.231Z,12.10
2023-05-17T06:17:13.378Z,11.70
2023-05-17T06:18:13.405Z,11.90
2023-05-17T06:19:13.373Z,11.80
2023-05-17T06:20:13.253Z,11.70
2023-05-17T06:21:13.073Z,11.90
2023-05-17T06:22:14.297Z,11.80
2023-05-17T06:23:13.151Z,11.80
2023-05-17T06:24:12.993Z,11.90
2023-05-17T06:25:13.000Z,12.00
2023-05-17T06:26:12.834Z,12.00
2023-05-17T06:27:13.943Z,11.60
2023-05-17T06:28:12.830Z,11.70
2023-05-17T06:29:13.656Z,12.10
2023-05-17T06:30:13.628Z,12.30
2023-05-17T06:31:13.736Z,12.20
2023-05-17T06:32:13.679Z,12.20
2023-05-17T06:33:13.460Z,12.60
2023-05-17T06:34:13.529Z,12.20
2023-05-17T06:35:13.341Z,12.20
2023-05-17T06:36:13.700Z,12.10
2023-05-17T06:37:13.606Z,12.30
2023-05-17T06:38:13.688Z,11.70
2023-05-17T06:39:13.523Z,11.70
2023-05-17T06:40:16.604Z,12.10
2023-05-17T06:41:13.161Z,12.00
2023-05-17T06:42:13.117Z,11.90
2023-05-17T06:43:13.012Z,11.40
2023-05-17T06:44:13.058Z,11.50
2023-05-17T06:45:13.196Z,11.80
2023-05-17T06:46:13.197Z,11.60
2023-05-17T06:47:13.100Z,11.90
2023-05-17T06:48:13.042Z,11.80
2023-05-17T06:49:13.067Z,11.80
2023-05-17T06:50:12.920Z,11.70
2023-05-17T06:51:12.785Z,12.20
2023-05-17T06:52:13.623Z,12.30
2023-05-17T06:53:13.681Z,12.10
2023-05-17T06:54:13.682Z,12.20
2023-05-17T06:55:13.514Z,12.50
2023-05-17T06:56:13.589Z,12.80
2023-05-17T06:57:13.574Z,11.80
2023-05-17T06:58:13.336Z,12.10
2023-05-17T06:59:13.477Z,12.10
2023-05-17T07:00:13.308Z,13.00
2023-05-17T07:01:13.334Z,13.20
2023-05-17T07:02:13.394Z,12.50
2023-05-17T07:03:13.272Z,12.20
2023-05-17T07:04:13.308Z,11.90
2023-05-17T07:05:13.270Z,11.90
2023-05-17T07:06:13.297Z,11.70
2023-05-17T07:07:13.143Z,12.10
2023-05-17T07:08:13.159Z,11.70
2023-05-17T07:09:13.315Z,12.10
2023-05-17T07:10:13.165Z,12.00
2023-05-17T07:11:12.981Z,12.10
2023-05-17T07:12:12.804Z,12.80
2023-05-17T07:13:13.743Z,13.20
2023-05-17T07:14:13.509Z,13.30
2023-05-17T07:15:13.567Z,12.60
2023-05-17T07:16:13.811Z,12.70
2023-05-17T07:17:13.797Z,12.50
2023-05-17T07:18:13.972Z,13.00
2023-05-17T07:19:12.943Z,13.10
2023-05-17T07:20:13.102Z,13.80
2023-05-17T07:21:13.226Z,12.60
2023-05-17T07:22:13.337Z,12.00
2023-05-17T07:23:13.213Z,12.50
2023-05-17T07:24:13.253Z,12.30
2023-05-17T07:25:13.311Z,13.00
2023-05-17T07:26:18.260Z,12.50
2023-05-17T07:27:18.335Z,12.50
2023-05-17T07:28:13.148Z,12.80
2023-05-17T07:29:13.546Z,12.80
2023-05-17T07:30:13.376Z,12.40
2023-05-17T07:31:13.186Z,12.30
2023-05-17T07:32:13.024Z,11.60
2023-05-17T07:33:13.267Z,12.40
2023-05-17T07:34:13.297Z,12.70
2023-05-17T07:35:38.206Z,12.80
2023-05-17T07:36:13.150Z,13.10
2023-05-17T07:37:14.295Z,13.20
2023-05-17T07:38:13.252Z,13.00
2023-05-17T07:39:13.073Z,12.90
2023-05-17T07:40:13.070Z,13.00
2023-05-17T07:41:12.898Z,12.10
2023-05-17T07:42:13.268Z,11.70
2023-05-17T07:43:13.176Z,12.50
2023-05-17T07:44:13.263Z,12.40
2023-05-17T07:45:13.215Z,12.10
2023-05-17T07:46:18.349Z,12.50
2023-05-17T07:47:13.186Z,12.90
2023-05-17T07:48:13.177Z,12.90
2023-05-17T07:49:13.350Z,13.30
2023-05-17T07:50:13.355Z,13.00
2023-05-17T07:51:13.356Z,13.20
2023-05-17T07:52:13.230Z,12.70
2023-05-17T07:53:13.153Z,12.80
2023-05-17T07:54:13.058Z,12.90
2023-05-17T07:55:16.034Z,13.10
2023-05-17T07:56:13.864Z,13.00
2023-05-17T07:57:15.026Z,12.70
2023-05-17T07:58:12.866Z,12.90
2023-05-17T07:59:13.970Z,12.40
2023-05-17T08:00:13.016Z,12.50
2023-05-17T08:01:13.064Z,12.90
2023-05-17T08:02:13.215Z,12.60
2023-05-17T08:03:14.583Z,13.00
2023-05-17T08:04:13.367Z,12.40
2023-05-17T08:05:13.146Z,12.90
2023-05-17T08:06:12.996Z,13.40
2023-05-17T08:07:12.890Z,13.40
2023-05-17T08:08:17.851Z,14.10
2023-05-17T08:09:13.876Z,12.80
2023-05-17T08:10:13.899Z,13.00
2023-05-17T08:11:12.792Z,12.90
2023-05-17T08:12:13.605Z,13.00
2023-05-17T08:13:13.640Z,12.80
2023-05-17T08:14:13.617Z,12.60
2023-05-17T08:15:13.466Z,12.80
2023-05-17T08:16:14.874Z,12.30
2023-05-17T08:17:13.396Z,12.80
2023-05-17T08:18:13.346Z,13.30
2023-05-17T08:19:13.512Z,13.10
2023-05-17T08:20:13.758Z,12.70
2023-05-17T08:21:13.639Z,12.90
2023-05-17T08:22:13.479Z,13.40
2023-05-17T08:23:13.339Z,12.70
2023-05-17T08:24:13.251Z,12.90
2023-05-17T08:25:13.517Z,13.10
2023-05-17T08:26:13.630Z,12.20
2023-05-17T08:27:13.607Z,12.30
2023-05-17T08:28:13.617Z,13.00
2023-05-17T08:29:15.277Z,12.90
2023-05-17T08:30:18.024Z,12.80
2023-05-17T08:31:13.796Z,13.10
2023-05-17T08:32:14.023Z,13.30
2023-05-17T08:33:12.848Z,13.00
2023-05-17T08:34:13.813Z,12.90
2023-05-17T08:35:13.685Z,12.70
2023-05-17T08:36:13.656Z,13.30
2023-05-17T08:37:13.876Z,13.50
2023-05-17T08:38:12.746Z,13.60
2023-05-17T08:39:13.683Z,13.20
2023-05-17T08:40:13.413Z,12.60
2023-05-17T08:41:13.248Z,12.90
2023-05-17T08:42:13.334Z,12.60
2023-05-17T08:43:13.528Z,12.90
2023-05-17T08:44:13.427Z,12.90
2023-05-17T08:45:13.250Z,13.20
2023-05-17T08:46:13.137Z,13.50
2023-05-17T08:47:13.105Z,13.20
2023-05-17T08:48:13.106Z,13.30
2023-05-17T08:49:13.395Z,13.10
2023-05-17T08:50:13.318Z,13.10
2023-05-17T08:51:13.318Z,12.70
2023-05-17T08:52:13.101Z,12.90
2023-05-17T08:53:12.918Z,13.10
2023-05-17T08:54:12.800Z,13.70
2023-05-17T08:55:13.619Z,13.60
2023-05-17T08:56:13.417Z,13.40
2023-05-17T08:57:13.442Z,13.90
2023-05-17T08:58:13.185Z,13.30
2023-05-17T08:59:13.054Z,13.50
2023-05-17T09:00:12.965Z,13.40
2023-05-17T09:01:13.205Z,13.10
2023-05-17T09:02:13.248Z,12.90
2023-05-17T09:03:13.381Z,13.00
2023-05-17T09:04:13.333Z,13.10
2023-05-17T09:05:13.602Z,13.60
2023-05-17T09:06:13.308Z,13.90
2023-05-17T09:07:14.618Z,14.30
2023-05-17T09:08:13.679Z,14.10
2023-05-17T09:09:13.422Z,14.10
2023-05-17T09:10:18.424Z,14.20
2023-05-17T09:11:13.328Z,14.30
2023-05-17T09:12:13.092Z,14.00
2023-05-17T09:13:12.898Z,14.30
2023-05-17T09:14:12.770Z,14.30
2023-05-17T09:15:13.604Z,14.20
2023-05-17T09:16:13.466Z,14.30
2023-05-17T09:17:13.543Z,14.20
2023-05-17T09:18:13.737Z,13.70
2023-05-17T09:19:13.822Z,13.00
2023-05-17T09:20:13.097Z,13.10
2023-05-17T09:21:13.377Z,13.00
2023-05-17T09:22:13.533Z,13.70
2023-05-17T09:23:13.331Z,14.10
2023-05-17T09:24:13.314Z,13.40
2023-05-17T09:25:13.298Z,13.30
2023-05-17T09:26:13.214Z,13.40
2023-05-17T09:27:13.133Z,14.00
2023-05-17T09:28:12.956Z,14.20
2023-05-17T09:29:12.958Z,15.30
2023-05-17T09:30:12.969Z,16.80
2023-05-17T09:31:12.834Z,16.70
2023-05-17T09:32:13.607Z,15.00
2023-05-17T09:33:15.264Z,15.20
2023-05-17T09:34:13.626Z,15.20
2023-05-17T09:35:13.548Z,15.10
2023-05-17T09:36:13.348Z,13.90
2023-05-17T09:37:13.128Z,14.30
2023-05-17T09:38:13.056Z,14.50
2023-05-17T09:39:13.488Z,13.70
2023-05-17T09:40:12.808Z,14.00
2023-05-17T09:41:13.692Z,13.80
2023-05-17T09:42:13.813Z,14.20
2023-05-17T09:43:13.732Z,14.20
2023-05-17T09:44:14.264Z,13.60
2023-05-17T09:45:13.143Z,14.20
2023-05-17T09:46:13.111Z,14.40
2023-05-17T09:47:18.389Z,15.10
2023-05-17T09:48:13.912Z,15.30
2023-05-17T09:49:12.837Z,15.30
2023-05-17T09:50:14.063Z,14.70
2023-05-17T09:51:12.984Z,13.50
2023-05-17T09:52:12.808Z,13.80
2023-05-17T09:53:13.780Z,14.10
2023-05-17T09:54:13.638Z,14.80
2023-05-17T09:55:13.443Z,16.00
2023-05-17T09:56:13.508Z,16.00
2023-05-17T09:57:13.600Z,15.70
2023-05-17T09:58:13.611Z,15.30
2023-05-17T09:59:13.488Z,16.90
2023-05-17T10:00:13.380Z,17.40
2023-05-17T10:01:13.200Z,15.20
2023-05-17T10:02:13.372Z,14.30
2023-05-17T10:03:13.319Z,14.70
2023-05-17T10:04:18.412Z,14.50
2023-05-17T10:05:13.268Z,15.10
2023-05-17T10:06:23.605Z,14.30
2023-05-17T10:07:12.989Z,14.30
2023-05-17T10:08:13.005Z,14.80
2023-05-17T10:09:12.854Z,15.20
2023-05-17T10:10:13.910Z,15.20
2023-05-17T10:11:12.874Z,16.00
2023-05-17T10:12:13.708Z,16.70
2023-05-17T10:13:13.597Z,15.90
2023-05-17T10:14:13.461Z,15.00
2023-05-17T10:15:13.232Z,14.40
2023-05-17T10:16:13.332Z,15.60
2023-05-17T10:17:13.448Z,16.60
2023-05-17T10:18:13.319Z,15.70
2023-05-17T10:19:13.523Z,15.40
2023-05-17T10:20:14.686Z,15.70
2023-05-17T10:21:13.531Z,16.00
2023-05-17T10:22:22.513Z,15.50
2023-05-17T10:23:13.810Z,15.30
2023-05-17T10:24:13.618Z,15.40
2023-05-17T10:25:13.539Z,15.80
2023-05-17T10:26:13.534Z,15.10
2023-05-17T10:27:13.423Z,15.90
2023-05-17T10:28:13.284Z,15.50
2023-05-17T10:29:13.258Z,16.20
2023-05-17T10:30:13.362Z,18.40
2023-05-17T10:31:13.231Z,17.80
2023-05-17T10:32:13.397Z,17.20
2023-05-17T10:33:14.364Z,15.00
2023-05-17T10:34:13.556Z,14.80
2023-05-17T10:35:13.524Z,14.80
2023-05-17T10:36:13.587Z,16.90
2023-05-17T10:37:13.370Z,16.70
2023-05-17T10:38:13.358Z,17.40
2023-05-17T10:39:13.174Z,17.70
2023-05-17T10:40:13.228Z,16.70
2023-05-17T10:41:13.237Z,16.70
2023-05-17T10:42:15.273Z,18.50
2023-05-17T10:43:13.357Z,18.00
2023-05-17T10:44:13.114Z,18.70
2023-05-17T10:45:13.073Z,17.70
2023-05-17T10:46:13.020Z,16.30
2023-05-17T10:47:13.131Z,15.20
2023-05-17T10:48:13.066Z,14.40
2023-05-17T10:49:13.157Z,14.20
2023-05-17T10:50:13.293Z,14.10
2023-05-17T10:51:13.266Z,14.10
2023-05-17T10:52:13.222Z,14.60
2023-05-17T10:53:13.182Z,15.20
2023-05-17T10:54:13.094Z,15.10
2023-05-17T10:55:12.924Z,15.30
2023-05-17T10:56:12.742Z,15.30
2023-05-17T10:57:13.626Z,15.60
2023-05-17T10:58:13.500Z,15.90
2023-05-17T10:59:13.237Z,15.70
2023-05-17T11:00:13.116Z,16.70
2023-05-17T11:01:13.131Z,16.30
2023-05-17T11:02:13.072Z,16.40
2023-05-17T11:03:13.201Z,16.80
2023-05-17T11:04:13.576Z,17.20
2023-05-17T11:05:13.716Z,15.70
2023-05-17T11:06:22.495Z,16.30
2023-05-17T11:07:13.044Z,14.70
2023-05-17T11:08:13.015Z,14.90
2023-05-17T11:09:12.856Z,14.10
2023-05-17T11:10:14.027Z,15.10
2023-05-17T11:11:13.008Z,14.60
2023-05-17T11:12:12.832Z,14.80
2023-05-17T11:13:13.620Z,14.70
2023-05-17T11:14:13.394Z,14.40
2023-05-17T11:15:13.391Z,14.20
2023-05-17T11:16:13.275Z,14.50
2023-05-17T11:17:13.751Z,14.60
2023-05-17T11:18:22.685Z,15.50
2023-05-17T11:19:12.974Z,15.80
2023-05-17T11:20:16.420Z,16.10
2023-05-17T11:21:12.940Z,17.70
2023-05-17T11:22:12.876Z,18.20
2023-05-17T11:23:13.621Z,17.50
2023-05-17T11:24:13.440Z,16.00
2023-05-17T11:25:13.433Z,15.70
2023-05-17T11:26:16.222Z,15.60
2023-05-17T11:27:13.330Z,14.70
2023-05-17T11:28:13.533Z,14.60
2023-05-17T11:29:14.549Z,14.90
2023-05-17T11:30:48.158Z,14.10
2023-05-17T11:30:59.926Z,14.20
2023-05-17T11:31:11.750Z,14.40
2023-05-17T11:32:13.551Z,14.30
2023-05-17T11:33:25.362Z,14.70
2023-05-17T11:34:13.649Z,15.70
2023-05-17T11:35:13.652Z,15.90
2023-05-17T11:36:13.648Z,16.40
2023-05-17T11:37:13.483Z,16.10
2023-05-17T11:38:13.313Z,15.60
2023-05-17T11:39:13.137Z,16.70
2023-05-17T11:40:13.000Z,16.40
2023-05-17T11:41:19.523Z,17.60
2023-05-17T11:42:12.915Z,16.80
2023-05-17T11:43:12.891Z,17.50
2023-05-17T11:44:12.635Z,19.50
2023-05-17T11:45:13.489Z,19.10
2023-05-17T11:46:13.183Z,17.80
2023-05-17T11:47:13.209Z,15.70
2023-05-17T11:48:13.221Z,15.80
2023-05-17T11:49:20.238Z,15.40
2023-05-17T11:50:13.250Z,14.90
2023-05-17T11:51:13.517Z,14.40
2023-05-17T11:52:13.306Z,14.40
2023-05-17T11:53:13.433Z,14.90
2023-05-17T11:54:13.542Z,14.40
2023-05-17T11:55:13.323Z,15.90
2023-05-17T11:56:13.315Z,16.00
2023-05-17T11:57:13.634Z,17.00
2023-05-17T11:58:13.509Z,16.70
2023-05-17T11:59:13.453Z,16.10
2023-05-17T12:00:13.369Z,16.00
2023-05-17T12:01:13.474Z,17.00
2023-05-17T12:02:13.302Z,16.80
2023-05-17T12:03:13.407Z,17.80
2023-05-17T12:04:13.212Z,16.90
2023-05-17T12:05:13.113Z,17.20
2023-05-17T12:06:13.197Z,17.30
2023-05-17T12:07:12.962Z,16.80
2023-05-17T12:08:14.087Z,16.50
2023-05-17T12:09:12.941Z,17.80
2023-05-17T12:10:12.853Z,16.60
2023-05-17T12:11:13.711Z,15.70
2023-05-17T12:12:13.548Z,15.80
2023-05-17T12:13:13.420Z,16.60
2023-05-17T12:14:13.268Z,16.70
2023-05-17T12:15:13.218Z,17.20
2023-05-17T12:16:15.991Z,17.90
2023-05-17T12:17:13.772Z,18.00
2023-05-17T12:18:14.065Z,18.40
2023-05-17T12:19:13.088Z,20.00
2023-05-17T12:20:13.151Z,16.90
2023-05-17T12:21:13.243Z,16.10
2023-05-17T12:22:13.292Z,16.50
2023-05-17T12:23:13.190Z,18.50
2023-05-17T12:24:12.982Z,18.00
2023-05-17T12:25:12.816Z,16.70
2023-05-17T12:26:13.691Z,15.90
2023-05-17T12:27:13.464Z,17.00
2023-05-17T12:28:13.413Z,17.60
2023-05-17T12:29:13.465Z,16.30
2023-05-17T12:30:13.271Z,15.70
2023-05-17T12:31:13.184Z,15.00
2023-05-17T12:32:13.041Z,14.70
2023-05-17T12:33:13.706Z,15.00
2023-05-17T12:34:13.588Z,16.00
2023-05-17T12:35:13.548Z,16.20
2023-05-17T12:36:14.409Z,17.40
2023-05-17T12:37:13.300Z,16.00
2023-05-17T12:38:13.478Z,16.30
2023-05-17T12:39:13.282Z,16.10
2023-05-17T12:40:13.155Z,16.20
2023-05-17T12:41:13.358Z,17.10
2023-05-17T12:42:13.204Z,15.40
2023-05-17T12:43:13.065Z,15.80
2023-05-17T12:44:15.968Z,15.20
2023-05-17T12:45:13.464Z,15.10
2023-05-17T12:46:13.264Z,15.50
2023-05-17T12:47:13.171Z,15.00
2023-05-17T12:48:13.302Z,15.80
2023-05-17T12:49:13.631Z,16.60
2023-05-17T12:50:13.051Z,17.60
2023-05-17T12:51:12.892Z,17.10
2023-05-17T12:52:12.646Z,16.80
2023-05-17T12:53:13.639Z,17.80
2023-05-17T12:56:27.334Z,17.10
2023-05-17T12:57:13.464Z,17.60
2023-05-17T12:58:13.394Z,17.20
2023-05-17T12:59:13.316Z,15.30
2023-05-17T13:00:13.284Z,14.60